Terminal Aerodrome Forecast
Issued by NWS Portland, ME

Current Version | Previous Version | Text Only | Print | Product List | Glossary On
Versions: 1 2 3 4 5 6 7 8 9 10 11 12 13 14 15 16
911
FTUS41 KGYX 112341
TAFPWM
TAF
KPWM 112341Z 1200/1224 VRB05KT P6SM BKN070
     FM120600 05004KT P6SM BKN080
     FM121300 04006KT 4SM -SN OVC014
     FM121500 07007KT 1 1/2SM -SN OVC010
     FM121700 10008KT 1 1/2SM RA OVC010 WS020/13045KT=

USA.gov is the U.S. government's official web portal to all federal, state and local government web resources and services.